sensor_id;sensor_type;location;lat;lon;timestamp;temperature;humidity
6252;DHT22;3159;52.414;9.784;2022-09-09T00:00:24;17.00;99.90
6252;DHT22;3159;52.414;9.784;2022-09-09T00:02:58;17.00;99.90
6252;DHT22;3159;52.414;9.784;2022-09-09T00:05:32;16.90;99.90
6252;DHT22;3159;52.414;9.784;2022-09-09T00:08:03;16.90;99.90
6252;DHT22;3159;52.414;9.784;2022-09-09T00:10:37;16.90;99.90
6252;DHT22;3159;52.414;9.784;2022-09-09T00:13:14;16.90;99.90
6252;DHT22;3159;52.414;9.784;2022-09-09T00:15:49;16.90;99.90
6252;DHT22;3159;52.414;9.784;2022-09-09T00:18:24;16.90;99.90
6252;DHT22;3159;52.414;9.784;2022-09-09T00:20:57;16.80;99.90
6252;DHT22;3159;52.414;9.784;2022-09-09T00:23:27;16.70;99.90
6252;DHT22;3159;52.414;9.784;2022-09-09T00:26:02;16.70;99.90
6252;DHT22;3159;52.414;9.784;2022-09-09T00:28:35;16.80;99.90
6252;DHT22;3159;52.414;9.784;2022-09-09T00:31:11;16.70;99.90
6252;DHT22;3159;52.414;9.784;2022-09-09T00:33:39;16.70;99.90
6252;DHT22;3159;52.414;9.784;2022-09-09T00:36:13;16.70;99.90
6252;DHT22;3159;52.414;9.784;2022-09-09T00:38:45;16.70;99.90
6252;DHT22;3159;52.414;9.784;2022-09-09T00:41:19;16.70;99.90
6252;DHT22;3159;52.414;9.784;2022-09-09T00:43:56;16.50;99.90
6252;DHT22;3159;52.414;9.784;2022-09-09T00:49:37;16.50;99.90
6252;DHT22;3159;52.414;9.784;2022-09-09T00:52:16;16.60;99.90
6252;DHT22;3159;52.414;9.784;2022-09-09T00:54:50;16.50;99.90
6252;DHT22;3159;52.414;9.784;2022-09-09T00:57:26;16.40;99.90
6252;DHT22;3159;52.414;9.784;2022-09-09T01:00:01;16.50;99.90
6252;DHT22;3159;52.414;9.784;2022-09-09T01:02:37;16.50;99.90
6252;DHT22;3159;52.414;9.784;2022-09-09T01:05:12;16.50;99.90
6252;DHT22;3159;52.414;9.784;2022-09-09T01:07:44;16.50;99.90
6252;DHT22;3159;52.414;9.784;2022-09-09T01:10:23;16.50;99.90
6252;DHT22;3159;52.414;9.784;2022-09-09T01:12:56;16.60;99.90
6252;DHT22;3159;52.414;9.784;2022-09-09T01:15:29;16.60;99.90
6252;DHT22;3159;52.414;9.784;2022-09-09T01:18:01;16.50;99.90
6252;DHT22;3159;52.414;9.784;2022-09-09T01:20:39;16.60;99.90
6252;DHT22;3159;52.414;9.784;2022-09-09T01:23:20;16.60;99.90
6252;DHT22;3159;52.414;9.784;2022-09-09T01:26:22;16.50;99.90
6252;DHT22;3159;52.414;9.784;2022-09-09T01:28:52;16.50;99.90
6252;DHT22;3159;52.414;9.784;2022-09-09T01:31:21;16.50;99.90
6252;DHT22;3159;52.414;9.784;2022-09-09T01:33:49;16.50;99.90
6252;DHT22;3159;52.414;9.784;2022-09-09T01:36:23;16.40;99.90
6252;DHT22;3159;52.414;9.784;2022-09-09T01:38:52;16.40;99.90
6252;DHT22;3159;52.414;9.784;2022-09-09T01:41:19;16.50;99.90
6252;DHT22;3159;52.414;9.784;2022-09-09T01:43:49;16.50;99.90
6252;DHT22;3159;52.414;9.784;2022-09-09T01:46:18;16.50;99.90
6252;DHT22;3159;52.414;9.784;2022-09-09T01:48:48;16.40;99.90
6252;DHT22;3159;52.414;9.784;2022-09-09T01:51:16;16.40;99.90
6252;DHT22;3159;52.414;9.784;2022-09-09T01:53:43;16.30;99.90
6252;DHT22;3159;52.414;9.784;2022-09-09T01:56:31;16.20;99.90
6252;DHT22;3159;52.414;9.784;2022-09-09T01:59:09;16.10;99.90
6252;DHT22;3159;52.414;9.784;2022-09-09T02:01:46;16.00;99.90
6252;DHT22;3159;52.414;9.784;2022-09-09T02:04:27;16.00;99.90
6252;DHT22;3159;52.414;9.784;2022-09-09T02:06:56;15.90;99.90
6252;DHT22;3159;52.414;9.784;2022-09-09T02:09:24;16.00;99.90
6252;DHT22;3159;52.414;9.784;2022-09-09T02:11:55;16.10;99.90
6252;DHT22;3159;52.414;9.784;2022-09-09T02:14:29;16.10;99.90
6252;DHT22;3159;52.414;9.784;2022-09-09T02:17:01;16.10;99.90
6252;DHT22;3159;52.414;9.784;2022-09-09T02:19:31;16.10;99.90
6252;DHT22;3159;52.414;9.784;2022-09-09T02:22:00;16.20;99.90
6252;DHT22;3159;52.414;9.784;2022-09-09T02:24:30;16.20;99.90
6252;DHT22;3159;52.414;9.784;2022-09-09T02:26:59;16.20;99.90
6252;DHT22;3159;52.414;9.784;2022-09-09T02:29:31;16.20;99.90
6252;DHT22;3159;52.414;9.784;2022-09-09T02:32:01;16.20;99.90
6252;DHT22;3159;52.414;9.784;2022-09-09T02:34:31;16.20;99.90
6252;DHT22;3159;52.414;9.784;2022-09-09T02:37:01;16.00;99.90
6252;DHT22;3159;52.414;9.784;2022-09-09T02:39:30;16.00;99.90
6252;DHT22;3159;52.414;9.784;2022-09-09T02:41:57;15.90;99.90
6252;DHT22;3159;52.414;9.784;2022-09-09T02:44:24;15.90;99.90
6252;DHT22;3159;52.414;9.784;2022-09-09T02:47:03;16.00;99.90
6252;DHT22;3159;52.414;9.784;2022-09-09T02:49:41;16.00;99.90
6252;DHT22;3159;52.414;9.784;2022-09-09T02:52:14;16.00;99.90
6252;DHT22;3159;52.414;9.784;2022-09-09T02:54:42;16.00;99.90
6252;DHT22;3159;52.414;9.784;2022-09-09T02:57:11;15.80;99.90
6252;DHT22;3159;52.414;9.784;2022-09-09T02:59:39;15.90;99.90
6252;DHT22;3159;52.414;9.784;2022-09-09T03:02:08;16.00;99.90
6252;DHT22;3159;52.414;9.784;2022-09-09T03:04:35;16.00;99.90
6252;DHT22;3159;52.414;9.784;2022-09-09T03:07:03;16.10;99.90
6252;DHT22;3159;52.414;9.784;2022-09-09T03:09:30;16.20;99.90
6252;DHT22;3159;52.414;9.784;2022-09-09T03:11:58;16.30;99.90
6252;DHT22;3159;52.414;9.784;2022-09-09T03:14:25;16.30;99.90
6252;DHT22;3159;52.414;9.784;2022-09-09T03:16:53;16.30;99.90
6252;DHT22;3159;52.414;9.784;2022-09-09T03:19:23;16.20;99.90
6252;DHT22;3159;52.414;9.784;2022-09-09T03:21:50;16.20;99.90
6252;DHT22;3159;52.414;9.784;2022-09-09T03:24:17;15.90;99.90
6252;DHT22;3159;52.414;9.784;2022-09-09T03:26:44;15.90;99.90
6252;DHT22;3159;52.414;9.784;2022-09-09T03:29:12;16.00;99.90
6252;DHT22;3159;52.414;9.784;2022-09-09T03:31:39;16.00;99.90
6252;DHT22;3159;52.414;9.784;2022-09-09T03:34:06;16.00;99.90
6252;DHT22;3159;52.414;9.784;2022-09-09T03:36:35;16.10;99.90
6252;DHT22;3159;52.414;9.784;2022-09-09T03:39:03;16.10;99.90
6252;DHT22;3159;52.414;9.784;2022-09-09T03:41:30;16.20;99.90
6252;DHT22;3159;52.414;9.784;2022-09-09T03:43:57;16.30;99.90
6252;DHT22;3159;52.414;9.784;2022-09-09T03:46:25;16.30;99.90
6252;DHT22;3159;52.414;9.784;2022-09-09T03:48:52;16.30;99.90
6252;DHT22;3159;52.414;9.784;2022-09-09T03:51:20;16.20;99.90
6252;DHT22;3159;52.414;9.784;2022-09-09T03:53:49;16.30;99.90
6252;DHT22;3159;52.414;9.784;2022-09-09T03:56:16;16.30;99.90
6252;DHT22;3159;52.414;9.784;2022-09-09T03:58:43;16.20;99.90
6252;DHT22;3159;52.414;9.784;2022-09-09T04:01:11;16.10;99.90
6252;DHT22;3159;52.414;9.784;2022-09-09T04:03:39;16.10;99.90
6252;DHT22;3159;52.414;9.784;2022-09-09T04:06:08;16.10;99.90
6252;DHT22;3159;52.414;9.784;2022-09-09T04:08:35;16.20;99.90
6252;DHT22;3159;52.414;9.784;2022-09-09T04:11:04;16.20;99.90
6252;DHT22;3159;52.414;9.784;2022-09-09T04:13:32;16.10;99.90
6252;DHT22;3159;52.414;9.784;2022-09-09T04:16:01;16.20;99.90
6252;DHT22;3159;52.414;9.784;2022-09-09T04:18:29;16.20;99.90
6252;DHT22;3159;52.414;9.784;2022-09-09T04:20:56;16.30;99.90
6252;DHT22;3159;52.414;9.784;2022-09-09T04:23:24;16.20;99.90
6252;DHT22;3159;52.414;9.784;2022-09-09T04:25:53;16.20;99.90
6252;DHT22;3159;52.414;9.784;2022-09-09T04:28:23;16.20;99.90
6252;DHT22;3159;52.414;9.784;2022-09-09T04:30:51;16.30;99.90
6252;DHT22;3159;52.414;9.784;2022-09-09T04:33:18;16.30;99.90
6252;DHT22;3159;52.414;9.784;2022-09-09T04:35:47;16.30;99.90
6252;DHT22;3159;52.414;9.784;2022-09-09T04:38:14;16.40;99.90
6252;DHT22;3159;52.414;9.784;2022-09-09T04:40:42;16.30;99.90
6252;DHT22;3159;52.414;9.784;2022-09-09T04:43:09;16.10;99.90
6252;DHT22;3159;52.414;9.784;2022-09-09T04:45:38;16.10;99.90
6252;DHT22;3159;52.414;9.784;2022-09-09T04:48:06;16.20;99.90
6252;DHT22;3159;52.414;9.784;2022-09-09T04:50:33;16.20;99.90
6252;DHT22;3159;52.414;9.784;2022-09-09T04:53:00;16.20;99.90
6252;DHT22;3159;52.414;9.784;2022-09-09T04:55:28;16.20;99.90
6252;DHT22;3159;52.414;9.784;2022-09-09T04:57:55;16.20;99.90
6252;DHT22;3159;52.414;9.784;2022-09-09T05:00:23;16.20;99.90
6252;DHT22;3159;52.414;9.784;2022-09-09T05:02:52;16.30;99.90
6252;DHT22;3159;52.414;9.784;2022-09-09T05:05:18;16.30;99.90
6252;DHT22;3159;52.414;9.784;2022-09-09T05:07:45;16.30;99.90
6252;DHT22;3159;52.414;9.784;2022-09-09T05:10:13;16.30;99.90
6252;DHT22;3159;52.414;9.784;2022-09-09T05:12:42;16.20;99.90
6252;DHT22;3159;52.414;9.784;2022-09-09T05:15:09;16.10;99.90
6252;DHT22;3159;52.414;9.784;2022-09-09T05:17:37;16.10;99.90
6252;DHT22;3159;52.414;9.784;2022-09-09T05:20:06;16.20;99.90
6252;DHT22;3159;52.414;9.784;2022-09-09T05:22:33;16.30;99.90
6252;DHT22;3159;52.414;9.784;2022-09-09T05:25:00;16.40;99.90
6252;DHT22;3159;52.414;9.784;2022-09-09T05:27:27;16.50;99.90
6252;DHT22;3159;52.414;9.784;2022-09-09T05:29:57;16.60;99.90
6252;DHT22;3159;52.414;9.784;2022-09-09T05:32:24;16.60;99.90
6252;DHT22;3159;52.414;9.784;2022-09-09T05:34:51;16.60;99.90
6252;DHT22;3159;52.414;9.784;2022-09-09T05:37:19;16.60;99.90
6252;DHT22;3159;52.414;9.784;2022-09-09T05:39:46;16.70;99.90
6252;DHT22;3159;52.414;9.784;2022-09-09T05:42:13;16.70;99.90
6252;DHT22;3159;52.414;9.784;2022-09-09T05:44:40;16.70;99.90
6252;DHT22;3159;52.414;9.784;2022-09-09T05:47:08;16.60;99.90
6252;DHT22;3159;52.414;9.784;2022-09-09T05:49:35;16.60;99.90
6252;DHT22;3159;52.414;9.784;2022-09-09T05:52:02;16.60;99.90
6252;DHT22;3159;52.414;9.784;2022-09-09T05:54:31;16.50;99.90
6252;DHT22;3159;52.414;9.784;2022-09-09T05:56:58;16.50;99.90
6252;DHT22;3159;52.414;9.784;2022-09-09T05:59:25;16.50;99.90
6252;DHT22;3159;52.414;9.784;2022-09-09T06:01:52;16.50;99.90
6252;DHT22;3159;52.414;9.784;2022-09-09T06:04:19;16.60;99.90
6252;DHT22;3159;52.414;9.784;2022-09-09T06:06:49;16.70;99.90
6252;DHT22;3159;52.414;9.784;2022-09-09T06:09:16;16.70;99.90
6252;DHT22;3159;52.414;9.784;2022-09-09T06:11:45;16.80;99.90
6252;DHT22;3159;52.414;9.784;2022-09-09T06:14:12;16.70;99.90
6252;DHT22;3159;52.414;9.784;2022-09-09T06:16:39;16.70;99.90
6252;DHT22;3159;52.414;9.784;2022-09-09T06:19:09;16.70;99.90
6252;DHT22;3159;52.414;9.784;2022-09-09T06:21:38;16.80;99.90
6252;DHT22;3159;52.414;9.784;2022-09-09T06:24:06;16.70;99.90
6252;DHT22;3159;52.414;9.784;2022-09-09T06:26:35;16.70;99.90
6252;DHT22;3159;52.414;9.784;2022-09-09T06:29:04;16.60;99.90
6252;DHT22;3159;52.414;9.784;2022-09-09T06:31:33;16.60;99.90
6252;DHT22;3159;52.414;9.784;2022-09-09T06:34:05;16.50;99.90
6252;DHT22;3159;52.414;9.784;2022-09-09T06:36:33;16.60;99.90
6252;DHT22;3159;52.414;9.784;2022-09-09T06:39:01;16.60;99.90
6252;DHT22;3159;52.414;9.784;2022-09-09T06:41:30;16.70;99.90
6252;DHT22;3159;52.414;9.784;2022-09-09T06:43:57;16.70;99.90
6252;DHT22;3159;52.414;9.784;2022-09-09T06:46:26;16.70;99.90
6252;DHT22;3159;52.414;9.784;2022-09-09T06:48:54;16.60;99.90
6252;DHT22;3159;52.414;9.784;2022-09-09T06:51:25;16.60;99.90
6252;DHT22;3159;52.414;9.784;2022-09-09T06:53:54;16.60;99.90
6252;DHT22;3159;52.414;9.784;2022-09-09T06:56:22;16.80;99.90
6252;DHT22;3159;52.414;9.784;2022-09-09T06:58:51;16.90;99.90
6252;DHT22;3159;52.414;9.784;2022-09-09T07:01:19;17.00;99.90
6252;DHT22;3159;52.414;9.784;2022-09-09T07:03:49;17.00;99.90
6252;DHT22;3159;52.414;9.784;2022-09-09T07:06:18;17.10;99.90
6252;DHT22;3159;52.414;9.784;2022-09-09T07:08:50;17.10;99.90
6252;DHT22;3159;52.414;9.784;2022-09-09T07:11:19;17.10;99.90
6252;DHT22;3159;52.414;9.784;2022-09-09T07:13:46;17.20;99.90
6252;DHT22;3159;52.414;9.784;2022-09-09T07:16:14;17.50;99.90
6252;DHT22;3159;52.414;9.784;2022-09-09T07:18:42;17.70;99.90
6252;DHT22;3159;52.414;9.784;2022-09-09T07:21:12;17.60;99.90
6252;DHT22;3159;52.414;9.784;2022-09-09T07:23:40;17.90;99.90
6252;DHT22;3159;52.414;9.784;2022-09-09T07:26:09;18.30;99.90
6252;DHT22;3159;52.414;9.784;2022-09-09T07:28:36;18.50;99.90
6252;DHT22;3159;52.414;9.784;2022-09-09T07:31:04;18.80;99.90
6252;DHT22;3159;52.414;9.784;2022-09-09T07:33:32;18.80;99.90
6252;DHT22;3159;52.414;9.784;2022-09-09T07:36:05;19.10;99.90
6252;DHT22;3159;52.414;9.784;2022-09-09T07:38:37;19.10;99.90
6252;DHT22;3159;52.414;9.784;2022-09-09T07:41:05;19.40;99.90
6252;DHT22;3159;52.414;9.784;2022-09-09T07:43:34;19.70;99.90
6252;DHT22;3159;52.414;9.784;2022-09-09T07:46:01;19.80;99.90
6252;DHT22;3159;52.414;9.784;2022-09-09T07:48:28;20.20;99.90
6252;DHT22;3159;52.414;9.784;2022-09-09T07:51:08;20.40;99.90
6252;DHT22;3159;52.414;9.784;2022-09-09T07:53:38;20.20;99.90
6252;DHT22;3159;52.414;9.784;2022-09-09T07:56:07;20.60;99.90
6252;DHT22;3159;52.414;9.784;2022-09-09T07:58:35;20.70;99.90
6252;DHT22;3159;52.414;9.784;2022-09-09T08:01:07;20.90;99.90
6252;DHT22;3159;52.414;9.784;2022-09-09T08:03:35;21.10;99.90
6252;DHT22;3159;52.414;9.784;2022-09-09T08:06:02;21.40;99.90
6252;DHT22;3159;52.414;9.784;2022-09-09T08:08:30;21.20;99.90
6252;DHT22;3159;52.414;9.784;2022-09-09T08:11:09;21.00;99.90
6252;DHT22;3159;52.414;9.784;2022-09-09T08:13:41;21.10;99.90
6252;DHT22;3159;52.414;9.784;2022-09-09T08:16:10;21.20;99.90
6252;DHT22;3159;52.414;9.784;2022-09-09T08:18:38;20.80;99.90
6252;DHT22;3159;52.414;9.784;2022-09-09T08:21:07;20.80;99.90
6252;DHT22;3159;52.414;9.784;2022-09-09T08:23:38;20.90;99.90
6252;DHT22;3159;52.414;9.784;2022-09-09T08:26:10;21.00;99.90
6252;DHT22;3159;52.414;9.784;2022-09-09T08:28:37;21.30;99.90
6252;DHT22;3159;52.414;9.784;2022-09-09T08:31:07;21.50;99.90
6252;DHT22;3159;52.414;9.784;2022-09-09T08:33:34;21.70;99.90
6252;DHT22;3159;52.414;9.784;2022-09-09T08:36:03;22.00;99.90
6252;DHT22;3159;52.414;9.784;2022-09-09T08:38:30;21.90;99.90
6252;DHT22;3159;52.414;9.784;2022-09-09T08:41:04;21.50;99.90
6252;DHT22;3159;52.414;9.784;2022-09-09T08:43:34;20.70;99.90
6252;DHT22;3159;52.414;9.784;2022-09-09T08:46:06;20.40;99.90
6252;DHT22;3159;52.414;9.784;2022-09-09T08:48:44;20.10;99.90
6252;DHT22;3159;52.414;9.784;2022-09-09T08:51:18;20.00;99.90
6252;DHT22;3159;52.414;9.784;2022-09-09T08:53:49;20.10;99.90
6252;DHT22;3159;52.414;9.784;2022-09-09T08:56:21;20.00;99.90
6252;DHT22;3159;52.414;9.784;2022-09-09T08:58:52;19.90;99.90
6252;DHT22;3159;52.414;9.784;2022-09-09T09:04:29;20.10;99.90
6252;DHT22;3159;52.414;9.784;2022-09-09T09:07:07;20.00;99.90
6252;DHT22;3159;52.414;9.784;2022-09-09T09:09:45;20.10;99.90
6252;DHT22;3159;52.414;9.784;2022-09-09T09:12:16;20.10;99.90
6252;DHT22;3159;52.414;9.784;2022-09-09T09:14:47;20.00;99.90
6252;DHT22;3159;52.414;9.784;2022-09-09T09:17:16;20.10;99.90
6252;DHT22;3159;52.414;9.784;2022-09-09T09:19:45;20.20;99.90
6252;DHT22;3159;52.414;9.784;2022-09-09T09:22:18;20.10;99.90
6252;DHT22;3159;52.414;9.784;2022-09-09T09:24:52;20.10;99.90
6252;DHT22;3159;52.414;9.784;2022-09-09T09:27:29;20.10;99.90
6252;DHT22;3159;52.414;9.784;2022-09-09T09:30:01;20.20;99.90
6252;DHT22;3159;52.414;9.784;2022-09-09T09:32:33;20.10;99.90
6252;DHT22;3159;52.414;9.784;2022-09-09T09:35:02;20.30;99.90
6252;DHT22;3159;52.414;9.784;2022-09-09T09:37:36;20.20;99.90
6252;DHT22;3159;52.414;9.784;2022-09-09T09:40:09;20.10;99.90
6252;DHT22;3159;52.414;9.784;2022-09-09T09:42:37;20.10;99.90
6252;DHT22;3159;52.414;9.784;2022-09-09T09:45:16;20.30;99.90
6252;DHT22;3159;52.414;9.784;2022-09-09T09:47:43;20.30;99.90
6252;DHT22;3159;52.414;9.784;2022-09-09T09:50:17;20.40;99.90
6252;DHT22;3159;52.414;9.784;2022-09-09T09:52:53;20.60;99.90
6252;DHT22;3159;52.414;9.784;2022-09-09T09:55:22;20.90;99.90
6252;DHT22;3159;52.414;9.784;2022-09-09T09:57:50;21.20;99.90
6252;DHT22;3159;52.414;9.784;2022-09-09T10:00:20;21.30;99.90
6252;DHT22;3159;52.414;9.784;2022-09-09T10:02:47;21.20;99.90
6252;DHT22;3159;52.414;9.784;2022-09-09T10:05:19;21.30;99.90
6252;DHT22;3159;52.414;9.784;2022-09-09T10:07:46;21.30;99.90
6252;DHT22;3159;52.414;9.784;2022-09-09T10:10:17;21.10;99.90
6252;DHT22;3159;52.414;9.784;2022-09-09T10:12:55;21.00;99.90
6252;DHT22;3159;52.414;9.784;2022-09-09T10:15:32;21.30;99.90
6252;DHT22;3159;52.414;9.784;2022-09-09T10:18:17;21.00;99.90
6252;DHT22;3159;52.414;9.784;2022-09-09T10:20:53;20.90;99.90
6252;DHT22;3159;52.414;9.784;2022-09-09T10:23:32;21.80;99.90
6252;DHT22;3159;52.414;9.784;2022-09-09T10:26:15;22.40;99.90
6252;DHT22;3159;52.414;9.784;2022-09-09T10:29:06;22.30;99.90
6252;DHT22;3159;52.414;9.784;2022-09-09T10:31:43;22.40;99.90
6252;DHT22;3159;52.414;9.784;2022-09-09T10:34:21;22.20;99.90
6252;DHT22;3159;52.414;9.784;2022-09-09T10:36:54;22.10;99.90
6252;DHT22;3159;52.414;9.784;2022-09-09T10:39:32;21.70;99.90
6252;DHT22;3159;52.414;9.784;2022-09-09T10:42:05;21.50;99.90
6252;DHT22;3159;52.414;9.784;2022-09-09T10:44:45;21.50;99.90
6252;DHT22;3159;52.414;9.784;2022-09-09T10:47:43;21.20;99.90
6252;DHT22;3159;52.414;9.784;2022-09-09T10:50:27;21.30;99.90
6252;DHT22;3159;52.414;9.784;2022-09-09T10:53:00;21.00;99.90
6252;DHT22;3159;52.414;9.784;2022-09-09T10:55:35;21.10;99.90
6252;DHT22;3159;52.414;9.784;2022-09-09T10:58:05;21.10;99.90
6252;DHT22;3159;52.414;9.784;2022-09-09T11:00:39;20.90;99.90
6252;DHT22;3159;52.414;9.784;2022-09-09T11:03:15;20.90;99.90
6252;DHT22;3159;52.414;9.784;2022-09-09T11:05:47;21.00;99.90
6252;DHT22;3159;52.414;9.784;2022-09-09T11:08:18;20.80;99.90
6252;DHT22;3159;52.414;9.784;2022-09-09T11:10:51;20.80;99.90
6252;DHT22;3159;52.414;9.784;2022-09-09T11:13:25;20.80;99.90
6252;DHT22;3159;52.414;9.784;2022-09-09T11:16:00;20.70;99.90
6252;DHT22;3159;52.414;9.784;2022-09-09T11:18:32;20.70;99.90
6252;DHT22;3159;52.414;9.784;2022-09-09T11:21:10;20.60;99.90
6252;DHT22;3159;52.414;9.784;2022-09-09T11:23:44;20.30;99.90
6252;DHT22;3159;52.414;9.784;2022-09-09T11:26:17;20.30;99.90
6252;DHT22;3159;52.414;9.784;2022-09-09T11:29:15;20.20;99.90
6252;DHT22;3159;52.414;9.784;2022-09-09T11:31:49;20.30;99.90
6252;DHT22;3159;52.414;9.784;2022-09-09T11:34:38;20.20;99.90
6252;DHT22;3159;52.414;9.784;2022-09-09T11:37:33;20.10;99.90
6252;DHT22;3159;52.414;9.784;2022-09-09T11:40:21;19.80;99.90
6252;DHT22;3159;52.414;9.784;2022-09-09T11:42:49;19.40;99.90
6252;DHT22;3159;52.414;9.784;2022-09-09T11:45:28;19.40;99.90
6252;DHT22;3159;52.414;9.784;2022-09-09T11:47:56;19.20;99.90
6252;DHT22;3159;52.414;9.784;2022-09-09T11:50:34;18.90;99.90
6252;DHT22;3159;52.414;9.784;2022-09-09T11:53:21;18.80;99.90
6252;DHT22;3159;52.414;9.784;2022-09-09T11:56:01;19.00;99.90
6252;DHT22;3159;52.414;9.784;2022-09-09T11:58:34;18.90;99.90
6252;DHT22;3159;52.414;9.784;2022-09-09T12:01:16;18.70;99.90
6252;DHT22;3159;52.414;9.784;2022-09-09T12:04:01;18.80;99.90
6252;DHT22;3159;52.414;9.784;2022-09-09T12:06:31;18.50;99.90
6252;DHT22;3159;52.414;9.784;2022-09-09T12:09:06;18.40;99.90
6252;DHT22;3159;52.414;9.784;2022-09-09T12:11:34;18.50;99.90
6252;DHT22;3159;52.414;9.784;2022-09-09T12:14:02;18.60;99.90
6252;DHT22;3159;52.414;9.784;2022-09-09T12:16:33;18.60;99.90
6252;DHT22;3159;52.414;9.784;2022-09-09T12:19:06;18.70;99.90
6252;DHT22;3159;52.414;9.784;2022-09-09T12:21:42;18.70;99.90
6252;DHT22;3159;52.414;9.784;2022-09-09T12:24:13;18.80;99.90
6252;DHT22;3159;52.414;9.784;2022-09-09T12:26:46;18.90;99.90
6252;DHT22;3159;52.414;9.784;2022-09-09T12:29:23;19.00;99.90
6252;DHT22;3159;52.414;9.784;2022-09-09T12:31:55;19.10;99.90
6252;DHT22;3159;52.414;9.784;2022-09-09T12:34:36;19.30;99.90
6252;DHT22;3159;52.414;9.784;2022-09-09T12:37:12;19.40;99.90
6252;DHT22;3159;52.414;9.784;2022-09-09T12:39:44;19.50;99.90
6252;DHT22;3159;52.414;9.784;2022-09-09T12:42:19;19.90;99.90
6252;DHT22;3159;52.414;9.784;2022-09-09T12:44:53;20.00;99.90
6252;DHT22;3159;52.414;9.784;2022-09-09T12:47:23;20.20;99.90
6252;DHT22;3159;52.414;9.784;2022-09-09T12:49:51;20.50;99.90
6252;DHT22;3159;52.414;9.784;2022-09-09T12:52:27;21.10;99.90
6252;DHT22;3159;52.414;9.784;2022-09-09T12:54:57;21.50;99.90
6252;DHT22;3159;52.414;9.784;2022-09-09T12:57:33;22.00;99.90
6252;DHT22;3159;52.414;9.784;2022-09-09T13:00:14;22.10;99.90
6252;DHT22;3159;52.414;9.784;2022-09-09T13:02:50;22.70;99.90
6252;DHT22;3159;52.414;9.784;2022-09-09T13:05:20;22.80;99.90
6252;DHT22;3159;52.414;9.784;2022-09-09T13:07:48;22.60;99.90
6252;DHT22;3159;52.414;9.784;2022-09-09T13:10:22;22.40;99.90
6252;DHT22;3159;52.414;9.784;2022-09-09T13:12:50;22.10;99.90
6252;DHT22;3159;52.414;9.784;2022-09-09T13:15:21;21.70;99.90
6252;DHT22;3159;52.414;9.784;2022-09-09T13:17:56;22.20;99.90
6252;DHT22;3159;52.414;9.784;2022-09-09T13:20:24;22.10;99.90
6252;DHT22;3159;52.414;9.784;2022-09-09T13:22:54;21.60;99.90
6252;DHT22;3159;52.414;9.784;2022-09-09T13:25:24;21.30;99.90
6252;DHT22;3159;52.414;9.784;2022-09-09T13:27:55;21.40;99.90
6252;DHT22;3159;52.414;9.784;2022-09-09T13:30:25;21.10;99.90
6252;DHT22;3159;52.414;9.784;2022-09-09T13:33:19;21.00;99.90
6252;DHT22;3159;52.414;9.784;2022-09-09T13:35:50;20.60;99.90
6252;DHT22;3159;52.414;9.784;2022-09-09T13:38:20;20.30;99.90
6252;DHT22;3159;52.414;9.784;2022-09-09T13:40:55;20.50;99.90
6252;DHT22;3159;52.414;9.784;2022-09-09T13:43:28;20.60;99.90
6252;DHT22;3159;52.414;9.784;2022-09-09T13:45:57;20.40;99.90
6252;DHT22;3159;52.414;9.784;2022-09-09T13:48:25;20.50;99.90
6252;DHT22;3159;52.414;9.784;2022-09-09T13:50:57;20.30;99.90
6252;DHT22;3159;52.414;9.784;2022-09-09T13:53:26;20.40;99.90
6252;DHT22;3159;52.414;9.784;2022-09-09T13:55:53;20.50;99.90
6252;DHT22;3159;52.414;9.784;2022-09-09T13:58:20;20.50;99.90
6252;DHT22;3159;52.414;9.784;2022-09-09T14:00:48;20.60;99.90
6252;DHT22;3159;52.414;9.784;2022-09-09T14:03:15;20.80;99.90
6252;DHT22;3159;52.414;9.784;2022-09-09T14:05:44;20.80;99.90
6252;DHT22;3159;52.414;9.784;2022-09-09T14:08:16;20.80;99.90
6252;DHT22;3159;52.414;9.784;2022-09-09T14:10:48;20.80;99.90
6252;DHT22;3159;52.414;9.784;2022-09-09T14:13:16;20.80;99.90
6252;DHT22;3159;52.414;9.784;2022-09-09T14:15:42;20.70;99.90
6252;DHT22;3159;52.414;9.784;2022-09-09T14:18:11;20.60;99.90
6252;DHT22;3159;52.414;9.784;2022-09-09T14:20:39;20.50;99.90
6252;DHT22;3159;52.414;9.784;2022-09-09T14:23:10;20.60;99.90
6252;DHT22;3159;52.414;9.784;2022-09-09T14:25:40;20.50;99.90
6252;DHT22;3159;52.414;9.784;2022-09-09T14:28:10;20.60;99.90
6252;DHT22;3159;52.414;9.784;2022-09-09T14:30:38;20.60;99.90
6252;DHT22;3159;52.414;9.784;2022-09-09T14:33:05;20.60;99.90
6252;DHT22;3159;52.414;9.784;2022-09-09T14:35:32;20.70;99.90
6252;DHT22;3159;52.414;9.784;2022-09-09T14:38:00;20.80;99.90
6252;DHT22;3159;52.414;9.784;2022-09-09T14:40:28;20.60;99.90
6252;DHT22;3159;52.414;9.784;2022-09-09T14:42:55;20.80;99.90
6252;DHT22;3159;52.414;9.784;2022-09-09T14:45:24;21.00;99.90
6252;DHT22;3159;52.414;9.784;2022-09-09T14:47:52;20.90;99.90
6252;DHT22;3159;52.414;9.784;2022-09-09T14:50:20;20.90;99.90
6252;DHT22;3159;52.414;9.784;2022-09-09T14:52:47;20.90;99.90
6252;DHT22;3159;52.414;9.784;2022-09-09T14:55:14;21.00;99.90
6252;DHT22;3159;52.414;9.784;2022-09-09T14:57:41;21.00;99.90
6252;DHT22;3159;52.414;9.784;2022-09-09T15:00:11;21.10;99.90
6252;DHT22;3159;52.414;9.784;2022-09-09T15:02:39;21.00;99.90
6252;DHT22;3159;52.414;9.784;2022-09-09T15:05:07;21.00;99.90
6252;DHT22;3159;52.414;9.784;2022-09-09T15:07:34;21.20;99.90
6252;DHT22;3159;52.414;9.784;2022-09-09T15:10:02;21.40;99.90
6252;DHT22;3159;52.414;9.784;2022-09-09T15:12:29;21.40;99.90
6252;DHT22;3159;52.414;9.784;2022-09-09T15:14:57;21.40;99.90
6252;DHT22;3159;52.414;9.784;2022-09-09T15:17:25;21.30;99.90
6252;DHT22;3159;52.414;9.784;2022-09-09T15:19:54;21.40;99.90
6252;DHT22;3159;52.414;9.784;2022-09-09T15:22:21;21.40;99.90
6252;DHT22;3159;52.414;9.784;2022-09-09T15:24:49;21.40;99.90
6252;DHT22;3159;52.414;9.784;2022-09-09T15:27:16;21.50;99.90
6252;DHT22;3159;52.414;9.784;2022-09-09T15:29:43;21.70;99.90
6252;DHT22;3159;52.414;9.784;2022-09-09T15:32:11;21.80;99.90
6252;DHT22;3159;52.414;9.784;2022-09-09T15:34:38;21.60;99.90
6252;DHT22;3159;52.414;9.784;2022-09-09T15:37:06;21.60;99.90
6252;DHT22;3159;52.414;9.784;2022-09-09T15:39:38;21.60;99.90
6252;DHT22;3159;52.414;9.784;2022-09-09T15:42:05;21.70;99.90
6252;DHT22;3159;52.414;9.784;2022-09-09T15:44:39;21.60;99.90
6252;DHT22;3159;52.414;9.784;2022-09-09T15:47:08;21.50;99.90
6252;DHT22;3159;52.414;9.784;2022-09-09T15:49:38;21.60;99.90
6252;DHT22;3159;52.414;9.784;2022-09-09T15:52:06;21.50;99.90
6252;DHT22;3159;52.414;9.784;2022-09-09T15:54:34;21.50;99.90
6252;DHT22;3159;52.414;9.784;2022-09-09T15:57:03;21.50;99.90
6252;DHT22;3159;52.414;9.784;2022-09-09T15:59:32;21.50;99.90
6252;DHT22;3159;52.414;9.784;2022-09-09T16:01:59;21.40;99.90
6252;DHT22;3159;52.414;9.784;2022-09-09T16:04:27;21.30;99.90
6252;DHT22;3159;52.414;9.784;2022-09-09T16:06:56;21.40;99.90
6252;DHT22;3159;52.414;9.784;2022-09-09T16:09:26;21.20;99.90
6252;DHT22;3159;52.414;9.784;2022-09-09T16:11:56;21.30;99.90
6252;DHT22;3159;52.414;9.784;2022-09-09T16:14:24;21.40;99.90
6252;DHT22;3159;52.414;9.784;2022-09-09T16:16:51;21.50;99.90
6252;DHT22;3159;52.414;9.784;2022-09-09T16:19:19;21.40;99.90
6252;DHT22;3159;52.414;9.784;2022-09-09T16:21:47;21.40;99.90
6252;DHT22;3159;52.414;9.784;2022-09-09T16:24:16;21.60;99.90
6252;DHT22;3159;52.414;9.784;2022-09-09T16:26:47;21.70;99.90
6252;DHT22;3159;52.414;9.784;2022-09-09T16:29:15;21.60;99.90
6252;DHT22;3159;52.414;9.784;2022-09-09T16:31:43;21.70;99.90